createdAt,value
2018-02-23T00:00:33.406Z,32.30
2018-02-23T00:01:33.349Z,31.90
2018-02-23T00:02:33.303Z,33.60
2018-02-23T00:03:33.246Z,32.30
2018-02-23T00:04:33.218Z,31.60
2018-02-23T00:05:33.142Z,32.60
2018-02-23T00:06:33.136Z,33.60
2018-02-23T00:07:33.044Z,33.90
2018-02-23T00:08:32.988Z,33.40
2018-02-23T00:09:32.964Z,33.10
2018-02-23T00:10:32.883Z,32.50
2018-02-23T00:11:32.857Z,32.40
2018-02-23T00:12:32.781Z,34.70
2018-02-23T00:13:32.730Z,32.30
2018-02-23T00:14:32.708Z,32.30
2018-02-23T00:15:32.626Z,32.90
2018-02-23T00:16:32.609Z,33.60
2018-02-23T00:17:32.524Z,34.50
2018-02-23T00:18:32.472Z,34.70
2018-02-23T00:19:32.462Z,33.90
2018-02-23T00:20:32.368Z,32.70
2018-02-23T00:21:32.316Z,34.50
2018-02-23T00:22:32.262Z,33.40
2018-02-23T00:23:32.215Z,34.20
2018-02-23T00:24:32.187Z,35.20
2018-02-23T00:25:32.112Z,32.50
2018-02-23T00:26:32.062Z,33.40
2018-02-23T00:27:32.009Z,35.20
2018-02-23T00:28:31.957Z,34.10
2018-02-23T00:29:31.924Z,35.60
2018-02-23T00:30:31.855Z,36.10
2018-02-23T00:31:31.802Z,33.90
2018-02-23T00:32:31.751Z,35.60
2018-02-23T00:33:31.697Z,36.40
2018-02-23T00:34:31.665Z,35.60
2018-02-23T00:35:31.592Z,36.70
2018-02-23T00:36:31.541Z,33.90
2018-02-23T00:37:31.494Z,35.90
2018-02-23T00:38:31.441Z,35.10
2018-02-23T00:39:31.411Z,35.30
2018-02-23T00:40:31.333Z,38.80
2018-02-23T00:41:31.284Z,35.10
2018-02-23T00:42:31.233Z,34.60
2018-02-23T00:43:31.181Z,36.10
2018-02-23T00:44:31.157Z,35.70
2018-02-23T00:45:31.080Z,36.30
2018-02-23T00:46:31.024Z,38.50
2018-02-23T00:47:30.987Z,36.30
2018-02-23T00:48:30.922Z,35.50
2018-02-23T00:49:30.893Z,38.80
2018-02-23T00:50:30.821Z,37.90
2018-02-23T00:51:30.766Z,36.60
2018-02-23T00:52:30.720Z,38.40
2018-02-23T00:53:30.664Z,36.50
2018-02-23T00:54:30.639Z,38.30
2018-02-23T00:55:30.557Z,40.30
2018-02-23T00:56:30.513Z,39.80
2018-02-23T00:57:30.462Z,39.00
2018-02-23T00:58:30.410Z,38.10
2018-02-23T00:59:30.381Z,38.50
2018-02-23T01:00:30.304Z,40.00
2018-02-23T01:01:30.253Z,38.70
2018-02-23T01:02:30.197Z,38.20
2018-02-23T01:03:30.150Z,39.50
2018-02-23T01:04:30.124Z,38.90
2018-02-23T01:05:30.103Z,39.70
2018-02-23T01:06:30.002Z,40.00
2018-02-23T01:07:29.956Z,39.10
2018-02-23T01:08:29.890Z,42.10
2018-02-23T01:09:29.858Z,39.70
2018-02-23T01:10:29.788Z,38.80
2018-02-23T01:11:29.733Z,40.60
2018-02-23T01:12:29.681Z,40.40
2018-02-23T01:13:29.630Z,41.10
2018-02-23T01:14:29.605Z,40.00
2018-02-23T01:15:29.525Z,40.80
2018-02-23T01:16:29.487Z,40.90
2018-02-23T01:17:29.424Z,40.20
2018-02-23T01:18:29.375Z,41.50
2018-02-23T01:19:29.345Z,39.50
2018-02-23T01:20:29.279Z,41.20
2018-02-23T01:21:29.274Z,40.90
2018-02-23T01:22:29.166Z,40.10
2018-02-23T01:23:29.112Z,41.10
2018-02-23T01:24:29.086Z,41.90
2018-02-23T01:25:29.012Z,40.50
2018-02-23T01:26:28.960Z,43.00
2018-02-23T01:27:28.906Z,41.30
2018-02-23T01:28:28.855Z,41.80
2018-02-23T01:29:28.829Z,41.30
2018-02-23T01:30:28.750Z,40.90
2018-02-23T01:31:28.698Z,41.60
2018-02-23T01:32:28.647Z,44.00
2018-02-23T01:33:28.595Z,41.10
2018-02-23T01:34:28.568Z,43.40
2018-02-23T01:35:28.494Z,42.20
2018-02-23T01:36:28.444Z,42.60
2018-02-23T01:37:28.389Z,42.60
2018-02-23T01:38:28.339Z,43.60
2018-02-23T01:39:28.308Z,43.40
2018-02-23T01:40:28.234Z,41.40
2018-02-23T01:41:28.184Z,41.60
2018-02-23T01:42:28.130Z,42.30
2018-02-23T01:43:28.079Z,43.60
2018-02-23T01:44:28.054Z,43.50
2018-02-23T01:45:27.976Z,43.50
2018-02-23T01:46:27.924Z,42.90
2018-02-23T01:47:27.871Z,42.30
2018-02-23T01:48:35.968Z,43.20
2018-02-23T01:49:27.792Z,43.80
2018-02-23T01:50:27.714Z,44.60
2018-02-23T01:51:27.668Z,45.40
2018-02-23T01:52:27.623Z,42.30
2018-02-23T01:53:27.565Z,44.90
2018-02-23T01:54:27.533Z,44.20
2018-02-23T01:55:27.504Z,43.80
2018-02-23T01:56:27.402Z,45.20
2018-02-23T01:57:27.352Z,47.90
2018-02-23T01:58:27.300Z,45.30
2018-02-23T01:59:27.267Z,45.50
2018-02-23T02:00:27.193Z,45.20
2018-02-23T02:01:27.137Z,45.70
2018-02-23T02:02:27.098Z,46.00
2018-02-23T02:03:27.036Z,45.60
2018-02-23T02:04:27.014Z,45.60
2018-02-23T02:05:26.935Z,46.00
2018-02-23T02:06:26.878Z,43.80
2018-02-23T02:07:26.834Z,46.10
2018-02-23T02:08:26.801Z,45.50
2018-02-23T02:09:26.747Z,47.10
2018-02-23T02:10:26.673Z,45.30
2018-02-23T02:11:26.620Z,46.10
2018-02-23T02:12:26.577Z,46.00
2018-02-23T02:13:26.518Z,45.90
2018-02-23T02:14:26.533Z,45.70
2018-02-23T02:15:26.412Z,46.20
2018-02-23T02:16:26.362Z,43.90
2018-02-23T02:17:26.310Z,45.60
2018-02-23T02:18:26.254Z,45.10
2018-02-23T02:19:26.225Z,43.20
2018-02-23T02:20:26.152Z,42.20
2018-02-23T02:21:26.102Z,41.20
2018-02-23T02:22:26.048Z,42.80
2018-02-23T02:23:25.997Z,43.60
2018-02-23T02:24:25.975Z,42.00
2018-02-23T02:25:25.889Z,41.70
2018-02-23T02:26:25.844Z,41.40
2018-02-23T02:27:25.782Z,41.80
2018-02-23T02:28:25.732Z,42.00
2018-02-23T02:29:25.706Z,42.80
2018-02-23T02:30:25.645Z,42.70
2018-02-23T02:31:25.578Z,42.50
2018-02-23T02:32:25.527Z,42.70
2018-02-23T02:33:25.505Z,42.30
2018-02-23T02:34:25.474Z,41.30
2018-02-23T02:35:25.371Z,40.90
2018-02-23T02:36:25.314Z,40.10
2018-02-23T02:37:25.264Z,41.20
2018-02-23T02:38:25.213Z,40.00
2018-02-23T02:39:25.198Z,43.60
2018-02-23T02:40:25.110Z,41.40
2018-02-23T02:41:25.054Z,40.30
2018-02-23T02:42:25.002Z,41.00
2018-02-23T02:43:24.950Z,36.30
2018-02-23T02:44:24.898Z,39.20
2018-02-23T02:45:24.872Z,38.20
2018-02-23T02:46:24.793Z,39.60
2018-02-23T02:47:24.737Z,38.60
2018-02-23T02:48:24.734Z,36.80
2018-02-23T02:49:24.637Z,37.70
2018-02-23T02:50:24.614Z,38.30
2018-02-23T02:51:24.533Z,34.70
2018-02-23T02:52:24.478Z,37.30
2018-02-23T02:53:24.429Z,35.70
2018-02-23T02:54:24.375Z,34.00
2018-02-23T02:55:24.364Z,35.10
2018-02-23T02:56:24.270Z,35.20
2018-02-23T02:57:24.217Z,37.30
2018-02-23T02:58:24.165Z,34.00
2018-02-23T02:59:24.106Z,35.70
2018-02-23T03:00:24.087Z,35.10
2018-02-23T03:01:24.008Z,34.90
2018-02-23T03:02:23.954Z,35.10
2018-02-23T03:03:23.903Z,34.00
2018-02-23T03:04:23.851Z,33.90
2018-02-23T03:05:23.814Z,33.50
2018-02-23T03:06:23.741Z,33.20
2018-02-23T03:07:23.693Z,31.40
2018-02-23T03:08:23.639Z,31.70
2018-02-23T03:09:23.584Z,31.30
2018-02-23T03:10:23.561Z,31.70
2018-02-23T03:11:23.481Z,32.40
2018-02-23T03:12:23.428Z,32.00
2018-02-23T03:13:23.380Z,30.30
2018-02-23T03:14:23.327Z,30.00
2018-02-23T03:15:23.297Z,31.30
2018-02-23T03:16:23.219Z,30.30
2018-02-23T03:17:23.165Z,29.70
2018-02-23T03:18:23.116Z,28.70
2018-02-23T03:19:23.062Z,30.40
2018-02-23T03:20:23.033Z,29.50
2018-02-23T03:21:22.960Z,30.10
2018-02-23T03:22:22.906Z,30.10
2018-02-23T03:23:22.854Z,30.10
2018-02-23T03:24:22.802Z,30.50
2018-02-23T03:25:22.774Z,29.70
2018-02-23T03:26:22.693Z,28.80
2018-02-23T03:27:22.644Z,29.40
2018-02-23T03:28:22.592Z,28.40
2018-02-23T03:29:22.537Z,28.50
2018-02-23T03:30:22.524Z,27.70
2018-02-23T03:31:22.433Z,28.20
2018-02-23T03:32:22.382Z,27.50
2018-02-23T03:33:22.330Z,27.10
2018-02-23T03:34:22.279Z,27.90
2018-02-23T03:35:22.255Z,27.70
2018-02-23T03:36:22.166Z,26.60
2018-02-23T03:37:22.117Z,28.40
2018-02-23T03:38:22.065Z,27.30
2018-02-23T03:39:22.008Z,27.40
2018-02-23T03:40:21.981Z,30.00
2018-02-23T03:41:21.909Z,27.70
2018-02-23T03:42:21.853Z,27.90
2018-02-23T03:43:21.800Z,28.20
2018-02-23T03:44:21.748Z,28.30
2018-02-23T03:45:21.721Z,27.80
2018-02-23T03:46:21.657Z,28.50
2018-02-23T03:47:21.592Z,29.30
2018-02-23T03:48:21.535Z,28.20
2018-02-23T03:49:21.485Z,28.90
2018-02-23T03:50:21.455Z,29.50
2018-02-23T03:51:21.376Z,30.30
2018-02-23T03:52:21.327Z,29.70
2018-02-23T03:53:21.278Z,28.40
2018-02-23T03:54:21.251Z,29.40
2018-02-23T03:55:21.211Z,28.80
2018-02-23T03:56:21.119Z,28.00
2018-02-23T03:57:21.064Z,28.50
2018-02-23T03:58:21.014Z,29.80
2018-02-23T03:59:20.969Z,28.40
2018-02-23T04:00:20.925Z,29.30
2018-02-23T04:01:20.853Z,29.70
2018-02-23T04:02:20.798Z,29.50
2018-02-23T04:03:20.750Z,30.20
2018-02-23T04:04:20.692Z,29.10
2018-02-23T04:05:20.695Z,29.30
2018-02-23T04:06:20.591Z,29.80
2018-02-23T04:07:20.535Z,29.40
2018-02-23T04:08:20.483Z,28.80
2018-02-23T04:09:20.431Z,30.70
2018-02-23T04:10:20.425Z,31.20
2018-02-23T04:11:20.329Z,31.10
2018-02-23T04:12:20.273Z,30.50
2018-02-23T04:13:20.232Z,30.60
2018-02-23T04:14:20.173Z,29.60
2018-02-23T04:15:20.142Z,29.60
2018-02-23T04:16:20.062Z,31.10
2018-02-23T04:17:20.011Z,29.10
2018-02-23T04:18:19.960Z,30.20
2018-02-23T04:19:19.905Z,30.20
2018-02-23T04:20:19.881Z,30.00
2018-02-23T04:21:19.799Z,29.50
2018-02-23T04:22:19.751Z,31.00
2018-02-23T04:23:19.716Z,30.80
2018-02-23T04:24:19.641Z,31.00
2018-02-23T04:25:19.614Z,30.40
2018-02-23T04:26:19.535Z,29.50
2018-02-23T04:27:19.479Z,31.90
2018-02-23T04:28:19.431Z,29.50
2018-02-23T04:29:19.377Z,28.50
2018-02-23T04:30:19.349Z,29.60
2018-02-23T04:31:19.274Z,30.00
2018-02-23T04:32:19.247Z,29.90
2018-02-23T04:33:19.166Z,30.40
2018-02-23T04:34:19.114Z,29.90
2018-02-23T04:35:19.082Z,30.20
2018-02-23T04:36:19.005Z,29.30
2018-02-23T04:37:18.957Z,30.30
2018-02-23T04:38:18.901Z,28.70
2018-02-23T04:39:18.852Z,29.70
2018-02-23T04:40:18.820Z,29.50
2018-02-23T04:41:18.747Z,28.70
2018-02-23T04:42:18.693Z,30.20
2018-02-23T04:43:18.640Z,29.70
2018-02-23T04:44:18.586Z,27.90
2018-02-23T04:45:18.563Z,29.50
2018-02-23T04:46:18.489Z,29.50
2018-02-23T04:47:18.428Z,29.50
2018-02-23T04:48:18.377Z,29.50
2018-02-23T04:49:18.327Z,29.30
2018-02-23T04:50:18.328Z,28.70
2018-02-23T04:51:18.220Z,29.70
2018-02-23T04:52:18.167Z,28.40
2018-02-23T04:53:18.114Z,28.30
2018-02-23T04:54:18.063Z,27.90
2018-02-23T04:55:18.042Z,28.20
2018-02-23T04:56:17.954Z,28.40
2018-02-23T04:57:17.903Z,29.70
2018-02-23T04:58:17.865Z,30.10
2018-02-23T04:59:17.802Z,29.50
2018-02-23T05:00:17.771Z,28.10
2018-02-23T05:01:17.692Z,29.40
2018-02-23T05:02:17.644Z,27.90
2018-02-23T05:03:17.588Z,28.90
2018-02-23T05:04:17.544Z,29.40
2018-02-23T05:05:17.505Z,29.10
2018-02-23T05:06:17.430Z,29.80
2018-02-23T05:07:17.380Z,28.40
2018-02-23T05:08:17.326Z,29.30
2018-02-23T05:09:17.272Z,28.10
2018-02-23T05:10:17.242Z,28.20
2018-02-23T05:11:17.165Z,29.70
2018-02-23T05:12:17.115Z,27.00
2018-02-23T05:13:17.066Z,27.70
2018-02-23T05:14:17.011Z,26.70
2018-02-23T05:15:16.981Z,29.10
2018-02-23T05:16:16.905Z,26.90
2018-02-23T05:17:16.853Z,28.80
2018-02-23T05:18:16.801Z,27.60
2018-02-23T05:19:16.751Z,29.10
2018-02-23T05:20:16.933Z,28.50
2018-02-23T05:21:16.640Z,28.80
2018-02-23T05:22:16.587Z,28.60
2018-02-23T05:23:16.535Z,29.20
2018-02-23T05:24:16.481Z,29.80
2018-02-23T05:25:16.457Z,29.40
2018-02-23T05:26:16.378Z,29.10
2018-02-23T05:27:16.326Z,29.90
2018-02-23T05:28:16.271Z,30.10
2018-02-23T05:29:16.216Z,28.80
2018-02-23T05:30:16.214Z,30.00
2018-02-23T05:31:16.112Z,30.10
2018-02-23T05:32:16.061Z,31.30
2018-02-23T05:33:16.014Z,33.60
2018-02-23T05:34:15.957Z,32.10
2018-02-23T05:35:15.933Z,31.90
2018-02-23T05:36:15.876Z,31.20
2018-02-23T05:37:15.796Z,32.50
2018-02-23T05:38:15.745Z,32.10
2018-02-23T05:39:15.690Z,32.90
2018-02-23T05:40:15.640Z,33.40
2018-02-23T05:41:15.608Z,31.60
2018-02-23T05:42:15.534Z,32.90
2018-02-23T05:43:15.479Z,32.80
2018-02-23T05:44:15.426Z,34.90
2018-02-23T05:45:15.375Z,35.00
2018-02-23T05:46:15.347Z,35.00
2018-02-23T05:47:15.279Z,34.80
2018-02-23T05:48:15.214Z,34.10
2018-02-23T05:49:15.166Z,35.80
2018-02-23T05:50:15.117Z,35.20
2018-02-23T05:51:15.079Z,34.30
2018-02-23T05:52:15.001Z,34.00
2018-02-23T05:53:14.948Z,34.60
2018-02-23T05:54:14.897Z,34.60
2018-02-23T05:55:14.842Z,33.30
2018-02-23T05:56:14.816Z,34.60
2018-02-23T05:57:14.738Z,34.20
2018-02-23T05:58:14.686Z,35.50
2018-02-23T05:59:14.639Z,33.20
2018-02-23T06:00:14.579Z,34.20
2018-02-23T06:01:14.547Z,32.60
2018-02-23T06:02:14.472Z,34.50
2018-02-23T06:03:14.420Z,32.90
2018-02-23T06:04:14.520Z,34.00
2018-02-23T06:05:14.313Z,33.20
2018-02-23T06:06:14.282Z,33.00
2018-02-23T06:07:14.207Z,33.20
2018-02-23T06:08:14.155Z,34.10
2018-02-23T06:09:14.103Z,34.10
2018-02-23T06:10:14.047Z,34.10
2018-02-23T06:11:14.019Z,34.60
2018-02-23T06:12:13.940Z,32.60
2018-02-23T06:13:13.895Z,32.60
2018-02-23T06:14:13.835Z,34.00
2018-02-23T06:15:13.787Z,32.80
2018-02-23T06:16:13.756Z,32.90
2018-02-23T06:17:13.677Z,33.20
2018-02-23T06:18:13.628Z,34.40
2018-02-23T06:19:13.570Z,32.30
2018-02-23T06:20:13.514Z,31.70
2018-02-23T06:21:13.488Z,34.50
2018-02-23T06:22:13.410Z,31.90
2018-02-23T06:23:13.380Z,32.40
2018-02-23T06:24:13.303Z,31.60
2018-02-23T06:25:13.285Z,32.70
2018-02-23T06:26:13.254Z,31.90
2018-02-23T06:27:13.146Z,32.40
2018-02-23T06:28:13.096Z,32.60
2018-02-23T06:29:13.044Z,30.40
2018-02-23T06:30:12.990Z,30.70
2018-02-23T06:31:12.957Z,30.00
2018-02-23T06:32:12.914Z,31.00
2018-02-23T06:33:12.828Z,30.10
2018-02-23T06:34:12.778Z,29.30
2018-02-23T06:35:12.720Z,28.80
2018-02-23T06:36:12.695Z,30.30
2018-02-23T06:37:12.611Z,29.10
2018-02-23T06:38:12.566Z,27.70
2018-02-23T06:39:12.514Z,28.60
2018-02-23T06:40:12.482Z,27.60
2018-02-23T06:41:12.429Z,26.50
2018-02-23T06:42:12.353Z,28.40
2018-02-23T06:43:12.297Z,27.10
2018-02-23T06:44:12.248Z,24.30
2018-02-23T06:45:12.192Z,25.70
2018-02-23T06:46:12.162Z,26.00
2018-02-23T06:47:12.088Z,26.10
2018-02-23T06:48:12.049Z,24.00
2018-02-23T06:49:11.991Z,22.90
2018-02-23T06:50:11.926Z,24.00
2018-02-23T06:51:11.897Z,22.60
2018-02-23T06:52:11.823Z,22.60
2018-02-23T06:53:11.768Z,19.20
2018-02-23T06:54:11.717Z,20.10
2018-02-23T06:55:11.663Z,19.70
2018-02-23T06:56:11.636Z,19.90
2018-02-23T06:57:11.556Z,19.80
2018-02-23T06:58:11.554Z,20.30
2018-02-23T06:59:11.454Z,19.30
2018-02-23T07:00:11.397Z,18.00
2018-02-23T07:01:11.376Z,17.60
2018-02-23T07:02:11.294Z,18.80
2018-02-23T07:03:11.239Z,17.30
2018-02-23T07:04:11.188Z,17.30
2018-02-23T07:05:11.138Z,16.40
2018-02-23T07:06:11.105Z,17.40
2018-02-23T07:07:11.035Z,17.30
2018-02-23T07:08:10.979Z,18.40
2018-02-23T07:09:10.927Z,18.70
2018-02-23T07:10:10.873Z,16.90
2018-02-23T07:11:10.873Z,17.20
2018-02-23T07:12:10.766Z,17.70
2018-02-23T07:13:10.715Z,16.00
2018-02-23T07:14:10.671Z,17.30
2018-02-23T07:15:10.611Z,16.40
2018-02-23T07:16:10.584Z,17.10
2018-02-23T07:17:10.505Z,17.20
2018-02-23T07:18:10.455Z,16.50
2018-02-23T07:19:10.403Z,16.90
2018-02-23T07:20:10.347Z,18.20
2018-02-23T07:21:10.323Z,16.90
2018-02-23T07:22:10.248Z,17.30
2018-02-23T07:23:10.193Z,18.10
2018-02-23T07:24:10.140Z,18.60
2018-02-23T07:25:10.090Z,17.10
2018-02-23T07:26:10.063Z,16.90
2018-02-23T07:27:09.985Z,16.60
2018-02-23T07:28:09.931Z,17.00
2018-02-23T07:29:09.883Z,17.40
2018-02-23T07:30:09.828Z,16.20
2018-02-23T07:31:09.808Z,16.70
2018-02-23T07:32:09.723Z,15.10
2018-02-23T07:33:09.668Z,15.80
2018-02-23T07:34:09.622Z,17.70
2018-02-23T07:35:09.569Z,16.00
2018-02-23T07:36:09.519Z,16.30
2018-02-23T07:37:09.484Z,15.40
2018-02-23T07:38:09.410Z,15.90
2018-02-23T07:39:09.354Z,15.80
2018-02-23T07:40:09.305Z,14.60
2018-02-23T07:41:09.273Z,15.70
2018-02-23T07:42:09.228Z,16.80
2018-02-23T07:43:09.148Z,16.00
2018-02-23T07:44:09.100Z,17.30
2018-02-23T07:45:09.043Z,16.10
2018-02-23T07:46:08.991Z,14.30
2018-02-23T07:47:08.965Z,14.90
2018-02-23T07:48:08.889Z,15.90
2018-02-23T07:49:08.835Z,15.60
2018-02-23T07:50:08.784Z,14.10
2018-02-23T07:51:08.733Z,14.30
2018-02-23T07:52:08.705Z,14.50
2018-02-23T07:53:08.639Z,15.50
2018-02-23T07:54:08.585Z,15.00
2018-02-23T07:55:08.526Z,15.50
2018-02-23T07:56:08.473Z,15.60
2018-02-23T07:57:08.445Z,14.30
2018-02-23T07:58:08.371Z,15.70
2018-02-23T07:59:08.319Z,14.60
2018-02-23T08:00:08.526Z,14.50
2018-02-23T08:01:08.214Z,14.40
2018-02-23T08:02:08.181Z,14.50
2018-02-23T08:03:08.112Z,14.70
2018-02-23T08:04:08.055Z,14.50
2018-02-23T08:05:08.006Z,14.30
2018-02-23T08:06:07.955Z,14.10
2018-02-23T08:07:07.923Z,15.10
2018-02-23T08:08:07.848Z,13.90
2018-02-23T08:09:07.795Z,14.20
2018-02-23T08:10:07.747Z,13.60
2018-02-23T08:11:07.694Z,14.60
2018-02-23T08:12:07.666Z,13.70
2018-02-23T08:13:07.591Z,14.00
2018-02-23T08:14:07.538Z,14.70
2018-02-23T08:15:07.484Z,14.80
2018-02-23T08:16:07.464Z,13.10
2018-02-23T08:17:07.407Z,14.10
2018-02-23T08:18:07.333Z,12.70
2018-02-23T08:19:07.280Z,13.80
2018-02-23T08:20:07.230Z,13.70
2018-02-23T08:21:07.176Z,13.90
2018-02-23T08:22:07.156Z,13.40
2018-02-23T08:23:07.073Z,13.80
2018-02-23T08:24:07.026Z,13.80
2018-02-23T08:25:06.971Z,12.90
2018-02-23T08:26:06.921Z,13.00
2018-02-23T08:27:06.892Z,13.30
2018-02-23T08:28:06.817Z,13.20
2018-02-23T08:29:06.767Z,13.20
2018-02-23T08:30:06.713Z,12.50
2018-02-23T08:31:06.667Z,13.90
2018-02-23T08:32:06.636Z,13.90
2018-02-23T08:33:06.560Z,12.40
2018-02-23T08:34:06.514Z,12.00
2018-02-23T08:35:06.457Z,13.10
2018-02-23T08:36:06.408Z,13.10
2018-02-23T08:37:06.378Z,13.30
2018-02-23T08:38:06.305Z,12.30
2018-02-23T08:39:06.253Z,11.90
2018-02-23T08:40:06.203Z,13.50
2018-02-23T08:41:06.152Z,11.90
2018-02-23T08:42:06.128Z,13.10
2018-02-23T08:43:06.050Z,12.20
2018-02-23T08:44:06.050Z,10.40
2018-02-23T08:45:05.948Z,12.10
2018-02-23T08:46:05.929Z,11.70
2018-02-23T08:47:05.921Z,11.60
2018-02-23T08:48:05.841Z,10.30
2018-02-23T08:49:05.740Z,11.60
2018-02-23T08:50:05.693Z,9.60
2018-02-23T08:51:05.636Z,10.20
2018-02-23T08:52:05.612Z,9.50
2018-02-23T08:53:05.535Z,10.70
2018-02-23T08:54:05.485Z,11.80
2018-02-23T08:55:05.431Z,10.40
2018-02-23T08:56:05.380Z,9.60
2018-02-23T08:57:05.355Z,9.40
2018-02-23T08:58:05.283Z,8.80
2018-02-23T08:59:05.230Z,8.60
2018-02-23T09:00:05.173Z,8.10
2018-02-23T09:01:05.125Z,7.80
2018-02-23T09:02:05.098Z,8.30
2018-02-23T09:03:05.020Z,8.80
2018-02-23T09:04:04.970Z,8.70
2018-02-23T09:05:04.918Z,8.30
2018-02-23T09:06:04.869Z,8.70
2018-02-23T09:07:04.837Z,8.60
2018-02-23T09:08:04.762Z,8.00
2018-02-23T09:09:04.710Z,8.50
2018-02-23T09:10:04.658Z,7.90
2018-02-23T09:11:04.622Z,8.20
2018-02-23T09:12:04.584Z,8.30
2018-02-23T09:13:04.510Z,8.60
2018-02-23T09:14:04.458Z,7.90
2018-02-23T09:15:04.403Z,8.90
2018-02-23T09:16:04.356Z,7.70
2018-02-23T09:17:04.324Z,8.60
2018-02-23T09:18:04.249Z,8.80
2018-02-23T09:19:04.201Z,8.00
2018-02-23T09:20:04.148Z,9.30
2018-02-23T09:21:04.095Z,9.80
2018-02-23T09:22:04.065Z,7.40
2018-02-23T09:23:03.992Z,9.00
2018-02-23T09:24:03.938Z,7.70
2018-02-23T09:25:03.890Z,8.80
2018-02-23T09:26:03.838Z,8.40
2018-02-23T09:27:03.811Z,9.50
2018-02-23T09:28:03.737Z,9.70
2018-02-23T09:29:03.689Z,8.50
2018-02-23T09:30:03.680Z,9.80
2018-02-23T09:31:03.580Z,10.20
2018-02-23T09:32:03.556Z,8.20
2018-02-23T09:33:03.479Z,8.20
2018-02-23T09:34:03.433Z,8.60
2018-02-23T09:35:03.374Z,8.30
2018-02-23T09:36:03.327Z,9.50
2018-02-23T09:37:03.306Z,8.90
2018-02-23T09:38:03.224Z,9.90
2018-02-23T09:39:03.180Z,9.20
2018-02-23T09:40:03.119Z,9.50
2018-02-23T09:41:03.075Z,8.50
2018-02-23T09:42:03.047Z,9.10
2018-02-23T09:43:02.969Z,9.20
2018-02-23T09:44:02.917Z,10.00
2018-02-23T09:45:02.870Z,10.90
2018-02-23T09:46:02.813Z,10.80
2018-02-23T09:47:02.782Z,10.40
2018-02-23T09:48:02.711Z,10.90
2018-02-23T09:49:02.659Z,12.40
2018-02-23T09:50:02.609Z,11.70
2018-02-23T09:51:02.557Z,10.30
2018-02-23T09:52:02.528Z,11.20
2018-02-23T09:53:02.454Z,11.10
2018-02-23T09:54:02.402Z,10.80
2018-02-23T09:55:02.352Z,12.10
2018-02-23T09:56:02.297Z,12.70
2018-02-23T09:57:02.274Z,12.80
2018-02-23T09:58:02.204Z,12.50
2018-02-23T09:59:02.149Z,12.10
2018-02-23T10:00:02.098Z,10.60
2018-02-23T10:01:02.042Z,12.10
2018-02-23T10:02:02.012Z,12.90
2018-02-23T10:03:01.939Z,11.60
2018-02-23T10:04:01.888Z,12.40
2018-02-23T10:05:01.836Z,11.20
2018-02-23T10:06:01.789Z,11.80
2018-02-23T10:07:01.795Z,12.90
2018-02-23T10:08:01.681Z,10.10
2018-02-23T10:09:01.632Z,11.00
2018-02-23T10:10:01.579Z,12.30
2018-02-23T10:11:01.636Z,11.80
2018-02-23T10:12:01.501Z,12.10
2018-02-23T10:13:01.429Z,13.40
2018-02-23T10:14:01.461Z,13.30
2018-02-23T10:15:01.327Z,13.90
2018-02-23T10:16:01.313Z,11.20
2018-02-23T10:17:01.249Z,11.40
2018-02-23T10:18:01.175Z,10.40
2018-02-23T10:19:01.122Z,10.80
2018-02-23T10:20:01.313Z,11.70
2018-02-23T10:21:01.016Z,11.90
2018-02-23T10:22:00.991Z,12.30
2018-02-23T10:23:00.915Z,12.50
2018-02-23T10:24:00.868Z,12.20
2018-02-23T10:25:00.812Z,13.70
2018-02-23T10:26:00.770Z,13.50
2018-02-23T10:27:00.742Z,14.50
2018-02-23T10:28:00.659Z,14.70
2018-02-23T10:29:00.610Z,14.50
2018-02-23T10:30:00.558Z,12.50
2018-02-23T10:31:00.515Z,14.40
2018-02-23T10:32:00.461Z,13.60
2018-02-23T10:33:00.432Z,13.80
2018-02-23T10:34:00.359Z,12.60
2018-02-23T10:35:00.308Z,13.40
2018-02-23T10:36:00.507Z,14.20
2018-02-23T10:37:00.203Z,13.20
2018-02-23T10:38:00.198Z,12.80
2018-02-23T10:39:00.107Z,13.80
2018-02-23T10:40:00.074Z,14.50
2018-02-23T10:41:00.024Z,12.60
2018-02-23T10:41:59.950Z,13.20
2018-02-23T10:42:59.926Z,13.10
2018-02-23T10:43:59.851Z,12.20
2018-02-23T10:44:59.820Z,12.60
2018-02-23T10:45:59.749Z,12.80
2018-02-23T10:46:59.695Z,13.00
2018-02-23T10:47:59.673Z,12.50
2018-02-23T10:48:59.599Z,12.80
2018-02-23T10:49:59.547Z,13.60
2018-02-23T10:50:59.498Z,13.00
2018-02-23T10:51:59.442Z,12.90
2018-02-23T10:52:59.415Z,13.70
2018-02-23T10:53:59.344Z,14.10
2018-02-23T10:54:59.292Z,13.40
2018-02-23T10:55:59.259Z,12.60
2018-02-23T10:56:59.190Z,13.60
2018-02-23T10:57:59.163Z,13.00
2018-02-23T10:58:59.090Z,13.30
2018-02-23T10:59:59.039Z,12.40
2018-02-23T11:00:58.988Z,13.90
2018-02-23T11:01:58.939Z,14.30
2018-02-23T11:02:58.907Z,12.30
2018-02-23T11:03:58.839Z,14.10
2018-02-23T11:04:58.786Z,13.80
2018-02-23T11:05:58.748Z,15.00
2018-02-23T11:06:58.678Z,14.00
2018-02-23T11:07:58.656Z,13.00
2018-02-23T11:08:58.580Z,14.80
2018-02-23T11:09:58.530Z,13.40
2018-02-23T11:10:58.474Z,13.00
2018-02-23T11:11:58.423Z,14.90
2018-02-23T11:12:58.404Z,13.30
2018-02-23T11:13:58.322Z,12.70
2018-02-23T11:14:58.283Z,13.50
2018-02-23T11:15:58.327Z,13.60
2018-02-23T11:16:58.168Z,12.60
2018-02-23T11:17:58.147Z,13.10
2018-02-23T11:18:58.068Z,13.50
2018-02-23T11:19:58.018Z,12.10
2018-02-23T11:20:57.981Z,12.60
2018-02-23T11:21:57.917Z,14.00
2018-02-23T11:22:57.884Z,12.90
2018-02-23T11:23:57.812Z,13.10
2018-02-23T11:24:57.762Z,13.40
2018-02-23T11:25:57.714Z,13.20
2018-02-23T11:26:57.659Z,13.00
2018-02-23T11:27:57.627Z,13.20
2018-02-23T11:28:57.554Z,13.00
2018-02-23T11:29:57.546Z,12.90
2018-02-23T11:30:57.452Z,12.90
2018-02-23T11:31:57.403Z,12.90
2018-02-23T11:32:57.374Z,13.00
2018-02-23T11:33:57.407Z,13.80
2018-02-23T11:34:57.253Z,11.70
2018-02-23T11:35:57.231Z,13.30
2018-02-23T11:36:57.167Z,12.70
2018-02-23T11:37:57.119Z,12.40
2018-02-23T11:38:57.039Z,12.70
2018-02-23T11:39:56.990Z,13.00
2018-02-23T11:40:57.033Z,12.60
2018-02-23T11:41:56.893Z,12.20
2018-02-23T11:42:56.879Z,14.10
2018-02-23T11:43:56.785Z,12.10
2018-02-23T11:44:56.843Z,13.10
2018-02-23T11:45:56.682Z,12.70
2018-02-23T11:46:56.700Z,11.70
2018-02-23T11:47:56.605Z,12.50
2018-02-23T11:48:56.531Z,12.90
2018-02-23T11:49:56.478Z,11.70
2018-02-23T11:50:56.449Z,12.80
2018-02-23T11:51:56.379Z,12.20
2018-02-23T11:52:56.351Z,11.30
2018-02-23T11:53:56.276Z,12.20
2018-02-23T11:54:56.224Z,11.80
2018-02-23T11:55:56.174Z,11.20
2018-02-23T11:56:56.128Z,12.20
2018-02-23T11:57:56.106Z,11.90
2018-02-23T11:58:56.019Z,11.90
2018-02-23T11:59:55.969Z,12.30
2018-02-23T12:00:55.916Z,11.30
2018-02-23T12:01:55.870Z,12.00
2018-02-23T12:02:55.839Z,12.30
2018-02-23T12:03:55.765Z,11.60
2018-02-23T12:04:55.779Z,13.00
2018-02-23T12:05:55.875Z,12.20
2018-02-23T12:06:55.634Z,12.50
2018-02-23T12:07:55.584Z,12.20
2018-02-23T12:08:55.512Z,12.10
2018-02-23T12:09:55.458Z,11.30
2018-02-23T12:10:55.409Z,12.40
2018-02-23T12:11:55.356Z,10.60
2018-02-23T12:12:55.332Z,10.90
2018-02-23T12:13:55.259Z,12.70
2018-02-23T12:14:55.204Z,12.40
2018-02-23T12:15:55.152Z,12.40
2018-02-23T12:16:55.106Z,12.20
2018-02-23T12:17:55.072Z,10.80
2018-02-23T12:18:55.000Z,10.80
2018-02-23T12:19:54.965Z,11.30
2018-02-23T12:20:54.899Z,11.60
2018-02-23T12:21:54.851Z,11.30
2018-02-23T12:22:54.817Z,10.90
2018-02-23T12:23:54.745Z,11.50
2018-02-23T12:24:54.698Z,11.60
2018-02-23T12:25:54.641Z,11.40
2018-02-23T12:26:54.591Z,10.20
2018-02-23T12:27:54.569Z,12.00
2018-02-23T12:28:54.490Z,11.20
2018-02-23T12:29:54.442Z,11.10
2018-02-23T12:30:54.388Z,11.30
2018-02-23T12:31:54.337Z,12.20
2018-02-23T12:32:54.307Z,12.10
2018-02-23T12:33:54.238Z,11.90
2018-02-23T12:34:54.182Z,10.50
2018-02-23T12:35:54.145Z,11.20
2018-02-23T12:36:54.091Z,10.40
2018-02-23T12:37:54.057Z,11.30
2018-02-23T12:38:53.977Z,10.30
2018-02-23T12:39:53.925Z,10.50
2018-02-23T12:40:53.877Z,11.20
2018-02-23T12:41:53.859Z,10.90
2018-02-23T12:42:53.793Z,10.10
2018-02-23T12:43:53.719Z,10.50
2018-02-23T12:44:53.672Z,10.90
2018-02-23T12:45:53.627Z,12.00
2018-02-23T12:46:53.670Z,12.30
2018-02-23T12:47:53.540Z,13.40
2018-02-23T12:48:53.469Z,11.80
2018-02-23T12:49:53.417Z,15.60
2018-02-23T12:50:53.358Z,19.20
2018-02-23T12:51:53.307Z,16.90
2018-02-23T12:52:53.280Z,13.10
2018-02-23T12:53:53.239Z,11.70